METAR (acronimo di METeorological Air Report) è un messaggio meteo emesso nella maggior parte dei casi in ambito aeroportuale

LEMD - Madrid-Barajas, Spagna
Ultimo Aggiornamento: Domenica 27 Settembre 2020 18:00 CEST
Sereno
Sereno
 Wind from Nord
Vento: Nord 17 km/h
Temperatura: 21°C
Punto di Rugiada: 3°C
Umidità: 31%
Barometro: 1015 hPa
Condizioni: Sereno
Visibilità: superiore a 10 km
2020/09/27 16:00 LEMD 271600Z 01009KT 340V080 CAVOK 21/03 Q1015 NOSIG
LPPT - Lisbona, Portogallo
Ultimo Aggiornamento: Domenica 27 Settembre 2020 18:00 CEST
Qualche Nuvola
Qualche Nuvola
 Wind from Nord-Nord-Ovest
Vento: Nord-Nord-Ovest 35 km/h
Temperatura: 21°C
Punto di Rugiada: 13°C
Umidità: 60%
Barometro: 1016 hPa
Nuvole: Qualche Nuvola
Visibilità: 10 km
Nuvole nel Dettaglio: Qualche Nuvola 1219 m
2020/09/27 16:00 LPPT 271600Z 34019KT 300V360 9999 FEW040 21/13 Q1016
LFPG - Parigi Charles de Gaulle, Francia
Ultimo Aggiornamento: Domenica 27 Settembre 2020 18:00 CEST
Pioggia Leggera, Prevalentemente Nuvoloso
Pioggia Leggera, Prevalentemente Nuvoloso
 Wind from Nord-Nord-Ovest
Vento: Nord-Nord-Ovest 30 km/h, Raffica: 52 km/h
Temperatura: 14°C
Punto di Rugiada: 12°C
Umidità: 88%
Barometro: 1005 hPa
Condizioni: Pioggia Leggera
Nuvole: Prevalentemente Nuvoloso
Visibilità: 10 km
Nuvole nel Dettaglio: Prevalentemente Nuvoloso 427 m
2020/09/27 16:00 LFPG 271600Z 34016G28KT 9999 4000E -RA BKN014 14/12 Q1005 TEMPO 32015G30KT
 
LSZB - Berna, Svizzera
Ultimo Aggiornamento: Domenica 27 Settembre 2020 17:50 CEST
Prevalentemente Nuvoloso
Prevalentemente Nuvoloso
 Wind from Ovest-Nord-Ovest
Vento: Ovest-Nord-Ovest 19 km/h
Temperatura: 10°C
Wind Chill: 7°C
Punto di Rugiada: 5°C
Umidità: 71%
Barometro: 1006 hPa
Nuvole: Prevalentemente Nuvoloso
Visibilità: 10 km
Nuvole nel Dettaglio: Parzialmente Nuvoloso 762 m
Prevalentemente Nuvoloso 2743 m
2020/09/27 15:50 LSZB 271550Z 29010KT 9999 SCT025 BKN090 10/05 Q1006 NOSIG
LOWW - Vienna-Schwechat, Austria
Ultimo Aggiornamento: Domenica 27 Settembre 2020 17:50 CEST
Qualche Nuvola
Qualche Nuvola
 Wind from Sud-Sud-Est
Vento: Sud-Sud-Est 22 km/h
Temperatura: 16°C
Punto di Rugiada: 7°C
Umidità: 55%
Barometro: 1008 hPa
Nuvole: Qualche Nuvola
Visibilità: 10 km
Nuvole nel Dettaglio: Qualche Nuvola 1219 m
2020/09/27 15:50 LOWW 271550Z 15012KT 9999 FEW040 16/07 Q1008 NOSIG
LKPR - Praga-Ruzyne, Repubblica Ceca
Ultimo Aggiornamento: Domenica 27 Settembre 2020 18:00 CEST
Qualche Nuvola
Qualche Nuvola
 Wind from Ovest
Vento: Ovest 6 km/h
Temperatura: 11°C
Punto di Rugiada: 6°C
Umidità: 72%
Barometro: 1007 hPa
Nuvole: Qualche Nuvola
Visibilità: 10 km
Nuvole nel Dettaglio: Qualche Nuvola 1219 m
2020/09/27 16:00 LKPR 271600Z 27003KT 9999 FEW040 11/06 Q1007 NOSIG
 
LHBP - Budapest-Ferihegy, Ungheria
Ultimo Aggiornamento: Domenica 27 Settembre 2020 18:00 CEST
Sereno
Sereno
 Wind from Sud
Vento: Sud 11 km/h
Temperatura: 16°C
Punto di Rugiada: 5°C
Umidità: 48%
Barometro: 1011 hPa
Condizioni: Sereno
Visibilità: superiore a 10 km
2020/09/27 16:00 LHBP 271600Z 18006KT CAVOK 16/05 Q1011 NOSIG
UUEE - Mosca-Seremetevo, Russia
Ultimo Aggiornamento: Domenica 27 Settembre 2020 18:00 CEST
Sereno
Sereno
 Wind from Est-Sud-Est
Vento: Est-Sud-Est 18 km/h
Temperatura: 15°C
Punto di Rugiada: 3°C
Umidità: 45%
Barometro: 1026 hPa
Condizioni: Sereno
Visibilità: superiore a 10 km
2020/09/27 16:00 UUEE 271600Z 12005MPS CAVOK 15/03 Q1026 R06R/CLRD62 R06L/CLRD62 NOSIG
EYVI - Vilnius, Lituania
Ultimo Aggiornamento: Domenica 27 Settembre 2020 17:50 CEST
Pioggia Leggera, Acquazzoni, Prevalentemente Nuvoloso
Pioggia Leggera, Acquazzoni, Prevalentemente Nuvoloso
 Wind from Sud-Est
Vento: Sud-Est 19 km/h
Temperatura: 15°C
Punto di Rugiada: 13°C
Umidità: 88%
Barometro: 1009 hPa
Condizioni: Pioggia Leggera, Acquazzoni
Nuvole: Prevalentemente Nuvoloso
Visibilità: 10 km
Nuvole nel Dettaglio: Prevalentemente Nuvoloso 1189 m
2020/09/27 15:50 EYVI 271550Z 13010KT 9999 -SHRA BKN039CB 15/13 Q1009 NOSIG
 
EVRA - Riga, Lettonia
Ultimo Aggiornamento: Domenica 27 Settembre 2020 17:50 CEST
Sereno
Sereno
 Wind from Est
Vento: Est 19 km/h
Temperatura: 21°C
Punto di Rugiada: 11°C
Umidità: 53%
Barometro: 1010 hPa
Condizioni: Sereno
Visibilità: superiore a 10 km
2020/09/27 15:50 EVRA 271550Z 09010KT 060V140 CAVOK 21/11 Q1010 NOSIG
EETN - Tallinn, Estonia
Ultimo Aggiornamento: Domenica 27 Settembre 2020 17:50 CEST
Sereno
Sereno
 Wind from Est
Vento: Est 9 km/h
Temperatura: 16°C
Punto di Rugiada: 13°C
Umidità: 83%
Barometro: 1016 hPa
Condizioni: Sereno
Visibilità: superiore a 10 km
2020/09/27 15:50 EETN 271550Z 10005KT CAVOK 16/13 Q1016 NOSIG
EKCH - Copenaghen, Danimarca
Ultimo Aggiornamento: Domenica 27 Settembre 2020 17:50 CEST
Qualche Nuvola
Qualche Nuvola
 Wind from Est
Vento: Est 22 km/h
Temperatura: 19°C
Punto di Rugiada: 14°C
Umidità: 73%
Barometro: 1005 hPa
Nuvole: Qualche Nuvola
Visibilità: 10 km
Nuvole nel Dettaglio: Qualche Nuvola 6096 m
2020/09/27 15:50 EKCH 271550Z AUTO 09012KT 9999 FEW200/// 19/14 Q1005 NOSIG
 
ESSA - Stockholm Arlanda, Svezia
Ultimo Aggiornamento: Domenica 27 Settembre 2020 17:50 CEST
Prevalentemente Nuvoloso
Prevalentemente Nuvoloso
 Wind from Nord-Nord-Est
Vento: Nord-Nord-Est 22 km/h
Temperatura: 12°C
Punto di Rugiada: 12°C
Umidità: 100%
Barometro: 1015 hPa
Nuvole: Prevalentemente Nuvoloso
Visibilità: 10 km
Nuvole nel Dettaglio: Prevalentemente Nuvoloso 152 m
2020/09/27 15:50 ESSA 271550Z 02012KT 9999 BKN005 12/12 Q1015 BECMG BKN004
EDDT - Berlin Tegel, Germania
Ultimo Aggiornamento: Domenica 27 Settembre 2020 17:50 CEST
Qualche Nuvola
Qualche Nuvola
 Wind from Ovest-Sud-Ovest
Vento: Ovest-Sud-Ovest 7 km/h
Temperatura: 12°C
Punto di Rugiada: 8°C
Umidità: 77%
Barometro: 1006 hPa
Nuvole: Qualche Nuvola
Visibilità: 10 km
Nuvole nel Dettaglio: Qualche Nuvola 914 m
2020/09/27 15:50 EDDT 271550Z 25004KT 9999 FEW030 12/08 Q1006 NOSIG
EGLL - Londra-Heathrow, Inghilterra
Ultimo Aggiornamento: Domenica 27 Settembre 2020 17:50 CEST
Nuvoloso
Nuvoloso
 Wind from Nord-Nord-Ovest
Vento: Nord-Nord-Ovest 17 km/h
Temperatura: 14°C
Punto di Rugiada: 7°C
Umidità: 63%
Barometro: 1013 hPa
Nuvole: Nuvoloso
Visibilità: 10 km
Nuvole nel Dettaglio: Nuvoloso 853 m
2020/09/27 15:50 EGLL 271550Z AUTO 33009KT 290V020 9999 OVC028 14/07 Q1013 NOSIG
 
EGPH - Edinburgh, Scotland
Ultimo Aggiornamento: Domenica 27 Settembre 2020 17:50 CEST
Sereno
Sereno
 Wind from Nord-Est
Vento: Nord-Est 9 km/h
Temperatura: 12°C
Punto di Rugiada: 5°C
Umidità: 63%
Barometro: 1015 hPa
Condizioni: Sereno
Visibilità: superiore a 10 km
2020/09/27 15:50 EGPH 271550Z 04005KT 360V070 CAVOK 12/05 Q1015
EPWA - Varsavia-Chopin, Polonia
Ultimo Aggiornamento: Domenica 27 Settembre 2020 18:00 CEST
Pioggia, Qualche Nuvola
Pioggia, Qualche Nuvola
 Wind from Sud-Ovest
Vento: Sud-Ovest 15 km/h
Temperatura: 10°C
Wind Chill: 8°C
Punto di Rugiada: 9°C
Umidità: 94%
Barometro: 1008 hPa
Condizioni: Pioggia
Nuvole: Qualche Nuvola
Visibilità: 10 km
Nuvole nel Dettaglio: Qualche Nuvola 305 m
2020/09/27 16:00 EPWA 271600Z 22008KT 190V250 9999 RA FEW010 10/09 Q1008 NOSIG
ENGM - Oslo-Gardermoen, Norvegia
Ultimo Aggiornamento: Domenica 27 Settembre 2020 17:50 CEST
Nuvoloso
Nuvoloso
 Wind from Nord
Vento: Nord 17 km/h
Temperatura: 11°C
Punto di Rugiada: 9°C
Umidità: 88%
Barometro: 1016 hPa
Nuvole: Nuvoloso
Visibilità: 10 km
Nuvole nel Dettaglio: Nuvoloso 335 m
2020/09/27 15:50 ENGM 271550Z 36009KT 9999 OVC011 11/09 Q1016 NOSIG
 
LJLJ - Ljubljana Joze Pucnik, Slovenia
Ultimo Aggiornamento: Domenica 27 Settembre 2020 18:00 CEST
Prevalentemente Nuvoloso
Prevalentemente Nuvoloso
 Wind from Sud
Vento: Sud 6 km/h
Temperatura: 12°C
Punto di Rugiada: 8°C
Umidità: 77%
Barometro: 1008 hPa
Nuvole: Prevalentemente Nuvoloso
Visibilità: 10 km
Nuvole nel Dettaglio: Qualche Nuvola 1006 m
Parzialmente Nuvoloso 2743 m
Prevalentemente Nuvoloso 3962 m
2020/09/27 16:00 LJLJ 271600Z 19003KT 9999 FEW033 SCT090 BKN130 12/08 Q1008 NOSI G
LYBE - Belgrado-Nikola Tesla, Serbia
Ultimo Aggiornamento: Domenica 27 Settembre 2020 18:00 CEST
Sereno
Sereno
 Wind from Est-Nord-Est
Vento: Est-Nord-Est 9 km/h
Temperatura: 18°C
Punto di Rugiada: 10°C
Umidità: 60%
Barometro: 1010 hPa
Condizioni: Sereno
Visibilità: superiore a 10 km
2020/09/27 16:00 LYBE 271600Z 07005KT CAVOK 18/10 Q1010 NOSIG
LDZA - Zagabria-Franjo Tudman, Croazia
Ultimo Aggiornamento: Domenica 27 Settembre 2020 18:00 CEST
Sereno
Sereno
 Wind from Est
Vento: Est 7 km/h
Temperatura: 15°C
Punto di Rugiada: 9°C
Umidità: 68%
Barometro: 1008 hPa
Condizioni: Sereno
Visibilità: superiore a 10 km
2020/09/27 16:00 LDZA 271600Z 08004KT 040V110 CAVOK 15/09 Q1008 TEMPO RA
 
LQSA - Sarajevo, Bosnia-Erzegovina
Ultimo Aggiornamento: Domenica 27 Settembre 2020 18:00 CEST
Prevalentemente Nuvoloso
Prevalentemente Nuvoloso
 Wind from varies
Vento: variabile 6 km/h
Temperatura: 14°C
Punto di Rugiada: 14°C
Umidità: 100%
Barometro: 1008 hPa
Nuvole: Prevalentemente Nuvoloso
Visibilità: 10 km
Nuvole nel Dettaglio: Prevalentemente Nuvoloso 1676 m
2020/09/27 16:00 LQSA 271600Z VRB03KT 9999 BKN055 14/14 Q1008 NOSIG
LATI - Tirana, Albania
Ultimo Aggiornamento: Domenica 27 Settembre 2020 17:50 CEST
Prevalentemente Nuvoloso
Prevalentemente Nuvoloso
 Wind from Sud-Sud-Ovest
Vento: Sud-Sud-Ovest 9 km/h
Temperatura: 23°C
Punto di Rugiada: 11°C
Umidità: 47%
Barometro: 1010 hPa
Nuvole: Prevalentemente Nuvoloso
Visibilità: 10 km
Nuvole nel Dettaglio: Prevalentemente Nuvoloso 2987 m
2020/09/27 15:50 LATI 271550Z 20005KT 9999 BKN098 23/11 Q1010 NOSIG
LEPA - Palma de Mallorca, Spagna
Ultimo Aggiornamento: Domenica 27 Settembre 2020 18:00 CEST
Qualche Nuvola
Qualche Nuvola
 Wind from Ovest-Sud-Ovest
Vento: Ovest-Sud-Ovest 28 km/h
Temperatura: 21°C
Punto di Rugiada: 7°C
Umidità: 40%
Barometro: 1012 hPa
Nuvole: Qualche Nuvola
Visibilità: 10 km
Nuvole nel Dettaglio: Qualche Nuvola 732 m
2020/09/27 16:00 LEPA 271600Z 24015KT 9999 FEW024 21/07 Q1012 NOSIG
 
GCLP - Gran Canaria, Spagna
Ultimo Aggiornamento: Domenica 27 Settembre 2020 18:00 CEST
Parzialmente Nuvoloso
Parzialmente Nuvoloso
 Wind from Nord-Nord-Est
Vento: Nord-Nord-Est 46 km/h
Temperatura: 26°C
Punto di Rugiada: 17°C
Umidità: 58%
Barometro: 1015 hPa
Nuvole: Parzialmente Nuvoloso
Visibilità: 10 km
Nuvole nel Dettaglio: Parzialmente Nuvoloso 762 m
2020/09/27 16:00 GCLP 271600Z 02025KT 350V050 9999 SCT025 26/17 Q1015 NOSIG
LXGB - Gibraltar International Airport
Ultimo Aggiornamento: Domenica 27 Settembre 2020 17:50 CEST
Prevalentemente Nuvoloso
Prevalentemente Nuvoloso
 Wind from Sud-Sud-Ovest
Vento: Sud-Sud-Ovest 22 km/h
Temperatura: 23°C
Punto di Rugiada: 15°C
Umidità: 61%
Barometro: 1012 hPa
Nuvole: Prevalentemente Nuvoloso
Visibilità: 10 km
Nuvole nel Dettaglio: Qualche Nuvola 1219 m
Prevalentemente Nuvoloso 10668 m
2020/09/27 15:50 LXGB 271550Z 20012KT 9999 FEW040 BKN350 23/15 Q1012 NOSIG RMK BLU BLU
LGAV - Atene-Eleftherios Venizelos, Grecia
Ultimo Aggiornamento: Domenica 27 Settembre 2020 17:50 CEST
Qualche Nuvola
Qualche Nuvola
 Wind from Sud-Ovest
Vento: Sud-Ovest 15 km/h
Temperatura: 24°C
Punto di Rugiada: 14°C
Umidità: 54%
Barometro: 1014 hPa
Nuvole: Qualche Nuvola
Visibilità: 10 km
Nuvole nel Dettaglio: Qualche Nuvola 762 m
2020/09/27 15:50 LGAV 271550Z 22008KT 9999 FEW025 24/14 Q1014 NOSIG